sensor_id;sensor_type;location;lat;lon;timestamp;temperature;humidity
20070;DHT22;10195;50.868;4.382;2023-06-10T00:01:48;23.00;99.90
20070;DHT22;10195;50.868;4.382;2023-06-10T00:04:16;23.00;99.90
20070;DHT22;10195;50.868;4.382;2023-06-10T00:06:46;23.00;99.90
20070;DHT22;10195;50.868;4.382;2023-06-10T00:09:15;22.90;99.90
20070;DHT22;10195;50.868;4.382;2023-06-10T00:11:41;22.90;99.90
20070;DHT22;10195;50.868;4.382;2023-06-10T00:14:07;22.80;99.90
20070;DHT22;10195;50.868;4.382;2023-06-10T00:16:33;22.70;99.90
20070;DHT22;10195;50.868;4.382;2023-06-10T00:19:00;22.70;99.90
20070;DHT22;10195;50.868;4.382;2023-06-10T00:21:27;22.70;99.90
20070;DHT22;10195;50.868;4.382;2023-06-10T00:23:53;22.60;99.90
20070;DHT22;10195;50.868;4.382;2023-06-10T00:26:18;22.60;99.90
20070;DHT22;10195;50.868;4.382;2023-06-10T00:28:44;22.50;99.90
20070;DHT22;10195;50.868;4.382;2023-06-10T00:31:10;22.40;99.90
20070;DHT22;10195;50.868;4.382;2023-06-10T00:33:36;22.40;99.90
20070;DHT22;10195;50.868;4.382;2023-06-10T00:36:02;22.40;99.90
20070;DHT22;10195;50.868;4.382;2023-06-10T00:38:27;22.40;99.90
20070;DHT22;10195;50.868;4.382;2023-06-10T00:40:53;22.50;99.90
20070;DHT22;10195;50.868;4.382;2023-06-10T00:43:19;22.50;99.90
20070;DHT22;10195;50.868;4.382;2023-06-10T00:45:44;22.30;99.90
20070;DHT22;10195;50.868;4.382;2023-06-10T00:48:10;22.30;99.90
20070;DHT22;10195;50.868;4.382;2023-06-10T00:50:36;22.20;99.90
20070;DHT22;10195;50.868;4.382;2023-06-10T00:53:05;22.20;99.90
20070;DHT22;10195;50.868;4.382;2023-06-10T00:55:32;22.20;99.90
20070;DHT22;10195;50.868;4.382;2023-06-10T00:57:58;22.10;99.90
20070;DHT22;10195;50.868;4.382;2023-06-10T01:00:24;22.20;99.90
20070;DHT22;10195;50.868;4.382;2023-06-10T01:02:49;22.20;99.90
20070;DHT22;10195;50.868;4.382;2023-06-10T01:05:17;22.20;99.90
20070;DHT22;10195;50.868;4.382;2023-06-10T01:11:03;22.20;99.90
20070;DHT22;10195;50.868;4.382;2023-06-10T01:13:30;22.20;99.90
20070;DHT22;10195;50.868;4.382;2023-06-10T01:15:57;22.10;99.90
20070;DHT22;10195;50.868;4.382;2023-06-10T01:18:29;22.10;99.90
20070;DHT22;10195;50.868;4.382;2023-06-10T01:20:56;22.10;99.90
20070;DHT22;10195;50.868;4.382;2023-06-10T01:23:22;22.00;99.90
20070;DHT22;10195;50.868;4.382;2023-06-10T01:25:55;22.00;99.90
20070;DHT22;10195;50.868;4.382;2023-06-10T01:31:18;21.90;99.90
20070;DHT22;10195;50.868;4.382;2023-06-10T01:33:49;22.00;99.90
20070;DHT22;10195;50.868;4.382;2023-06-10T01:36:17;21.90;99.90
20070;DHT22;10195;50.868;4.382;2023-06-10T01:38:46;21.80;99.90
20070;DHT22;10195;50.868;4.382;2023-06-10T01:41:14;21.80;99.90
20070;DHT22;10195;50.868;4.382;2023-06-10T01:43:43;21.80;99.90
20070;DHT22;10195;50.868;4.382;2023-06-10T01:46:09;21.70;99.90
20070;DHT22;10195;50.868;4.382;2023-06-10T01:48:35;21.80;99.90
20070;DHT22;10195;50.868;4.382;2023-06-10T01:51:00;21.70;99.90
20070;DHT22;10195;50.868;4.382;2023-06-10T01:53:26;21.80;99.90
20070;DHT22;10195;50.868;4.382;2023-06-10T01:55:52;21.70;99.90
20070;DHT22;10195;50.868;4.382;2023-06-10T01:58:17;21.70;99.90
20070;DHT22;10195;50.868;4.382;2023-06-10T02:00:43;21.70;99.90
20070;DHT22;10195;50.868;4.382;2023-06-10T02:03:09;21.70;99.90
20070;DHT22;10195;50.868;4.382;2023-06-10T02:05:34;21.70;99.90
20070;DHT22;10195;50.868;4.382;2023-06-10T02:08:00;21.80;99.90
20070;DHT22;10195;50.868;4.382;2023-06-10T02:10:26;21.70;99.90
20070;DHT22;10195;50.868;4.382;2023-06-10T02:12:51;21.60;99.90
20070;DHT22;10195;50.868;4.382;2023-06-10T02:15:17;21.60;99.90
20070;DHT22;10195;50.868;4.382;2023-06-10T02:17:43;21.60;99.90
20070;DHT22;10195;50.868;4.382;2023-06-10T02:20:10;21.50;99.90
20070;DHT22;10195;50.868;4.382;2023-06-10T02:22:37;21.40;99.90
20070;DHT22;10195;50.868;4.382;2023-06-10T02:25:03;21.40;99.90
20070;DHT22;10195;50.868;4.382;2023-06-10T02:27:30;21.40;99.90
20070;DHT22;10195;50.868;4.382;2023-06-10T02:29:59;21.40;99.90
20070;DHT22;10195;50.868;4.382;2023-06-10T02:32:25;21.30;99.90
20070;DHT22;10195;50.868;4.382;2023-06-10T02:34:51;21.20;99.90
20070;DHT22;10195;50.868;4.382;2023-06-10T02:37:17;21.20;99.90
20070;DHT22;10195;50.868;4.382;2023-06-10T02:39:43;21.20;99.90
20070;DHT22;10195;50.868;4.382;2023-06-10T02:42:08;21.20;99.90
20070;DHT22;10195;50.868;4.382;2023-06-10T02:44:35;21.10;99.90
20070;DHT22;10195;50.868;4.382;2023-06-10T02:47:01;21.20;99.90
20070;DHT22;10195;50.868;4.382;2023-06-10T02:49:26;21.10;99.90
20070;DHT22;10195;50.868;4.382;2023-06-10T02:51:53;21.10;99.90
20070;DHT22;10195;50.868;4.382;2023-06-10T02:54:28;21.10;99.90
20070;DHT22;10195;50.868;4.382;2023-06-10T02:56:54;21.10;99.90
20070;DHT22;10195;50.868;4.382;2023-06-10T02:59:21;21.10;99.90
20070;DHT22;10195;50.868;4.382;2023-06-10T03:01:47;21.10;99.90
20070;DHT22;10195;50.868;4.382;2023-06-10T03:04:13;21.10;99.90
20070;DHT22;10195;50.868;4.382;2023-06-10T03:06:41;21.10;99.90
20070;DHT22;10195;50.868;4.382;2023-06-10T03:09:07;21.10;99.90
20070;DHT22;10195;50.868;4.382;2023-06-10T03:11:33;21.00;99.90
20070;DHT22;10195;50.868;4.382;2023-06-10T03:13:59;20.90;99.90
20070;DHT22;10195;50.868;4.382;2023-06-10T03:16:24;20.80;99.90
20070;DHT22;10195;50.868;4.382;2023-06-10T03:18:53;20.80;99.90
20070;DHT22;10195;50.868;4.382;2023-06-10T03:21:19;20.80;99.90
20070;DHT22;10195;50.868;4.382;2023-06-10T03:23:45;20.80;99.90
20070;DHT22;10195;50.868;4.382;2023-06-10T03:26:11;20.80;99.90
20070;DHT22;10195;50.868;4.382;2023-06-10T03:28:40;20.80;99.90
20070;DHT22;10195;50.868;4.382;2023-06-10T03:31:06;20.80;99.90
20070;DHT22;10195;50.868;4.382;2023-06-10T03:33:32;20.70;99.90
20070;DHT22;10195;50.868;4.382;2023-06-10T03:35:58;20.70;99.90
20070;DHT22;10195;50.868;4.382;2023-06-10T03:38:24;20.60;99.90
20070;DHT22;10195;50.868;4.382;2023-06-10T03:40:50;20.60;99.90
20070;DHT22;10195;50.868;4.382;2023-06-10T03:43:15;20.60;99.90
20070;DHT22;10195;50.868;4.382;2023-06-10T03:45:41;20.70;99.90
20070;DHT22;10195;50.868;4.382;2023-06-10T03:48:07;20.70;99.90
20070;DHT22;10195;50.868;4.382;2023-06-10T03:50:34;20.70;99.90
20070;DHT22;10195;50.868;4.382;2023-06-10T03:53:00;20.70;99.90
20070;DHT22;10195;50.868;4.382;2023-06-10T03:55:26;20.70;99.90
20070;DHT22;10195;50.868;4.382;2023-06-10T03:57:52;20.60;99.90
20070;DHT22;10195;50.868;4.382;2023-06-10T04:00:18;20.50;99.90
20070;DHT22;10195;50.868;4.382;2023-06-10T04:02:46;20.60;99.90
20070;DHT22;10195;50.868;4.382;2023-06-10T04:05:15;20.60;99.90
20070;DHT22;10195;50.868;4.382;2023-06-10T04:07:42;20.70;99.90
20070;DHT22;10195;50.868;4.382;2023-06-10T04:10:08;20.70;99.90
20070;DHT22;10195;50.868;4.382;2023-06-10T04:12:35;20.70;99.90
20070;DHT22;10195;50.868;4.382;2023-06-10T04:15:01;20.60;99.90
20070;DHT22;10195;50.868;4.382;2023-06-10T04:17:27;20.50;99.90
20070;DHT22;10195;50.868;4.382;2023-06-10T04:19:52;20.60;99.90
20070;DHT22;10195;50.868;4.382;2023-06-10T04:22:20;20.60;99.90
20070;DHT22;10195;50.868;4.382;2023-06-10T04:24:46;20.70;99.90
20070;DHT22;10195;50.868;4.382;2023-06-10T04:27:12;20.60;99.90
20070;DHT22;10195;50.868;4.382;2023-06-10T04:29:37;20.50;99.90
20070;DHT22;10195;50.868;4.382;2023-06-10T04:32:03;20.60;99.90
20070;DHT22;10195;50.868;4.382;2023-06-10T04:34:32;20.60;99.90
20070;DHT22;10195;50.868;4.382;2023-06-10T04:36:58;20.60;99.90
20070;DHT22;10195;50.868;4.382;2023-06-10T04:39:23;20.60;99.90
20070;DHT22;10195;50.868;4.382;2023-06-10T04:41:49;20.70;99.90
20070;DHT22;10195;50.868;4.382;2023-06-10T04:44:15;20.80;99.90
20070;DHT22;10195;50.868;4.382;2023-06-10T04:46:40;20.70;99.90
20070;DHT22;10195;50.868;4.382;2023-06-10T04:49:06;20.80;99.90
20070;DHT22;10195;50.868;4.382;2023-06-10T04:51:32;20.80;99.90
20070;DHT22;10195;50.868;4.382;2023-06-10T04:53:58;20.60;99.90
20070;DHT22;10195;50.868;4.382;2023-06-10T04:56:24;20.60;99.90
20070;DHT22;10195;50.868;4.382;2023-06-10T04:58:50;20.80;99.90
20070;DHT22;10195;50.868;4.382;2023-06-10T05:01:16;20.90;99.90
20070;DHT22;10195;50.868;4.382;2023-06-10T05:03:42;20.90;99.90
20070;DHT22;10195;50.868;4.382;2023-06-10T05:06:07;20.90;99.90
20070;DHT22;10195;50.868;4.382;2023-06-10T05:08:33;20.80;99.90
20070;DHT22;10195;50.868;4.382;2023-06-10T05:10:59;20.90;99.90
20070;DHT22;10195;50.868;4.382;2023-06-10T05:13:24;21.00;99.90
20070;DHT22;10195;50.868;4.382;2023-06-10T05:15:50;21.20;99.90
20070;DHT22;10195;50.868;4.382;2023-06-10T05:18:16;21.10;99.90
20070;DHT22;10195;50.868;4.382;2023-06-10T05:20:41;21.10;99.90
20070;DHT22;10195;50.868;4.382;2023-06-10T05:23:07;21.20;99.90
20070;DHT22;10195;50.868;4.382;2023-06-10T05:25:33;21.20;99.90
20070;DHT22;10195;50.868;4.382;2023-06-10T05:27:59;21.20;99.90
20070;DHT22;10195;50.868;4.382;2023-06-10T05:30:25;21.30;99.90
20070;DHT22;10195;50.868;4.382;2023-06-10T05:32:52;21.50;99.90
20070;DHT22;10195;50.868;4.382;2023-06-10T05:35:18;21.90;99.90
20070;DHT22;10195;50.868;4.382;2023-06-10T05:37:44;22.40;99.90
20070;DHT22;10195;50.868;4.382;2023-06-10T05:40:11;22.70;99.90
20070;DHT22;10195;50.868;4.382;2023-06-10T05:42:36;23.10;99.90
20070;DHT22;10195;50.868;4.382;2023-06-10T05:45:03;23.60;99.90
20070;DHT22;10195;50.868;4.382;2023-06-10T05:47:29;23.70;99.90
20070;DHT22;10195;50.868;4.382;2023-06-10T05:49:55;24.00;99.90
20070;DHT22;10195;50.868;4.382;2023-06-10T05:52:21;24.20;99.90
20070;DHT22;10195;50.868;4.382;2023-06-10T05:54:46;24.80;99.90
20070;DHT22;10195;50.868;4.382;2023-06-10T05:57:12;25.00;99.90
20070;DHT22;10195;50.868;4.382;2023-06-10T05:59:38;24.70;99.90
20070;DHT22;10195;50.868;4.382;2023-06-10T06:02:04;25.30;99.90
20070;DHT22;10195;50.868;4.382;2023-06-10T06:04:30;25.70;99.90
20070;DHT22;10195;50.868;4.382;2023-06-10T06:06:55;26.00;99.90
20070;DHT22;10195;50.868;4.382;2023-06-10T06:09:21;26.50;99.90
20070;DHT22;10195;50.868;4.382;2023-06-10T06:11:46;26.80;99.90
20070;DHT22;10195;50.868;4.382;2023-06-10T06:14:12;26.50;99.90
20070;DHT22;10195;50.868;4.382;2023-06-10T06:16:38;26.20;99.90
20070;DHT22;10195;50.868;4.382;2023-06-10T06:19:04;25.90;99.90
20070;DHT22;10195;50.868;4.382;2023-06-10T06:21:29;25.70;99.90
20070;DHT22;10195;50.868;4.382;2023-06-10T06:23:55;25.40;99.90
20070;DHT22;10195;50.868;4.382;2023-06-10T06:26:21;25.70;99.90
20070;DHT22;10195;50.868;4.382;2023-06-10T06:28:46;25.60;99.90
20070;DHT22;10195;50.868;4.382;2023-06-10T06:31:12;25.70;99.90
20070;DHT22;10195;50.868;4.382;2023-06-10T06:33:38;25.60;99.90
20070;DHT22;10195;50.868;4.382;2023-06-10T06:36:03;26.10;99.90
20070;DHT22;10195;50.868;4.382;2023-06-10T06:38:29;26.40;99.90
20070;DHT22;10195;50.868;4.382;2023-06-10T06:40:55;26.60;99.90
20070;DHT22;10195;50.868;4.382;2023-06-10T06:43:20;26.70;99.90
20070;DHT22;10195;50.868;4.382;2023-06-10T06:45:46;26.40;99.90
20070;DHT22;10195;50.868;4.382;2023-06-10T06:48:12;26.70;99.90
20070;DHT22;10195;50.868;4.382;2023-06-10T06:50:38;26.90;99.90
20070;DHT22;10195;50.868;4.382;2023-06-10T06:53:04;26.70;99.90
20070;DHT22;10195;50.868;4.382;2023-06-10T06:55:30;26.80;99.90
20070;DHT22;10195;50.868;4.382;2023-06-10T06:57:55;27.30;99.90
20070;DHT22;10195;50.868;4.382;2023-06-10T07:00:22;27.60;99.90
20070;DHT22;10195;50.868;4.382;2023-06-10T07:02:48;27.50;99.90
20070;DHT22;10195;50.868;4.382;2023-06-10T07:05:14;27.60;99.90
20070;DHT22;10195;50.868;4.382;2023-06-10T07:07:39;27.60;99.90
20070;DHT22;10195;50.868;4.382;2023-06-10T07:10:05;28.00;99.90
20070;DHT22;10195;50.868;4.382;2023-06-10T07:12:31;28.40;99.90
20070;DHT22;10195;50.868;4.382;2023-06-10T07:14:57;28.70;99.90
20070;DHT22;10195;50.868;4.382;2023-06-10T07:17:22;28.50;99.90
20070;DHT22;10195;50.868;4.382;2023-06-10T07:19:48;28.90;99.90
20070;DHT22;10195;50.868;4.382;2023-06-10T07:22:14;29.50;99.90
20070;DHT22;10195;50.868;4.382;2023-06-10T07:24:40;28.60;99.90
20070;DHT22;10195;50.868;4.382;2023-06-10T07:27:06;28.60;99.90
20070;DHT22;10195;50.868;4.382;2023-06-10T07:29:32;28.80;99.90
20070;DHT22;10195;50.868;4.382;2023-06-10T07:31:58;29.50;99.90
20070;DHT22;10195;50.868;4.382;2023-06-10T07:34:23;29.60;99.90
20070;DHT22;10195;50.868;4.382;2023-06-10T07:36:49;29.60;99.90
20070;DHT22;10195;50.868;4.382;2023-06-10T07:39:15;29.60;99.90
20070;DHT22;10195;50.868;4.382;2023-06-10T07:41:40;30.00;99.90
20070;DHT22;10195;50.868;4.382;2023-06-10T07:44:06;30.00;99.90
20070;DHT22;10195;50.868;4.382;2023-06-10T07:46:32;29.50;99.90
20070;DHT22;10195;50.868;4.382;2023-06-10T07:48:57;29.00;99.90
20070;DHT22;10195;50.868;4.382;2023-06-10T07:51:23;29.60;99.90
20070;DHT22;10195;50.868;4.382;2023-06-10T07:53:49;29.50;99.90
20070;DHT22;10195;50.868;4.382;2023-06-10T07:56:15;29.60;99.90
20070;DHT22;10195;50.868;4.382;2023-06-10T07:58:40;30.30;99.90
20070;DHT22;10195;50.868;4.382;2023-06-10T08:01:12;31.10;99.90
20070;DHT22;10195;50.868;4.382;2023-06-10T08:03:38;31.10;99.90
20070;DHT22;10195;50.868;4.382;2023-06-10T08:06:04;31.10;99.90
20070;DHT22;10195;50.868;4.382;2023-06-10T08:08:31;31.00;99.90
20070;DHT22;10195;50.868;4.382;2023-06-10T08:10:56;31.40;99.90
20070;DHT22;10195;50.868;4.382;2023-06-10T08:13:22;31.80;99.90
20070;DHT22;10195;50.868;4.382;2023-06-10T08:15:48;31.40;99.90
20070;DHT22;10195;50.868;4.382;2023-06-10T08:18:15;31.00;99.90
20070;DHT22;10195;50.868;4.382;2023-06-10T08:20:41;31.20;99.90
20070;DHT22;10195;50.868;4.382;2023-06-10T08:23:07;31.20;99.90
20070;DHT22;10195;50.868;4.382;2023-06-10T08:25:32;31.50;99.90
20070;DHT22;10195;50.868;4.382;2023-06-10T08:27:58;31.10;99.90
20070;DHT22;10195;50.868;4.382;2023-06-10T08:30:24;31.10;99.90
20070;DHT22;10195;50.868;4.382;2023-06-10T08:32:49;30.70;99.90
20070;DHT22;10195;50.868;4.382;2023-06-10T08:35:17;30.50;99.90
20070;DHT22;10195;50.868;4.382;2023-06-10T08:37:42;30.60;99.90
20070;DHT22;10195;50.868;4.382;2023-06-10T08:40:08;30.40;99.90
20070;DHT22;10195;50.868;4.382;2023-06-10T08:42:45;30.90;99.90
20070;DHT22;10195;50.868;4.382;2023-06-10T08:45:16;30.70;99.90
20070;DHT22;10195;50.868;4.382;2023-06-10T08:47:45;31.10;99.90
20070;DHT22;10195;50.868;4.382;2023-06-10T08:50:12;31.00;99.90
20070;DHT22;10195;50.868;4.382;2023-06-10T08:52:38;31.00;99.90
20070;DHT22;10195;50.868;4.382;2023-06-10T08:55:23;31.00;99.90
20070;DHT22;10195;50.868;4.382;2023-06-10T08:57:51;31.20;99.90
20070;DHT22;10195;50.868;4.382;2023-06-10T09:00:18;31.10;99.90
20070;DHT22;10195;50.868;4.382;2023-06-10T09:02:44;30.90;99.90
20070;DHT22;10195;50.868;4.382;2023-06-10T09:05:10;31.00;99.90
20070;DHT22;10195;50.868;4.382;2023-06-10T09:07:37;31.10;99.90
20070;DHT22;10195;50.868;4.382;2023-06-10T09:10:04;31.60;99.90
20070;DHT22;10195;50.868;4.382;2023-06-10T09:12:33;31.70;99.90
20070;DHT22;10195;50.868;4.382;2023-06-10T09:14:59;31.80;99.90
20070;DHT22;10195;50.868;4.382;2023-06-10T09:17:27;32.20;99.90
20070;DHT22;10195;50.868;4.382;2023-06-10T09:19:52;32.50;99.90
20070;DHT22;10195;50.868;4.382;2023-06-10T09:22:24;32.70;99.90
20070;DHT22;10195;50.868;4.382;2023-06-10T09:24:50;32.80;99.90
20070;DHT22;10195;50.868;4.382;2023-06-10T09:27:16;33.00;99.90
20070;DHT22;10195;50.868;4.382;2023-06-10T09:30:00;32.80;99.90
20070;DHT22;10195;50.868;4.382;2023-06-10T09:32:26;32.30;99.60
20070;DHT22;10195;50.868;4.382;2023-06-10T09:34:52;32.00;99.90
20070;DHT22;10195;50.868;4.382;2023-06-10T09:37:22;32.00;99.90
20070;DHT22;10195;50.868;4.382;2023-06-10T09:40:03;32.30;99.60
20070;DHT22;10195;50.868;4.382;2023-06-10T09:42:33;32.70;98.90
20070;DHT22;10195;50.868;4.382;2023-06-10T09:45:01;32.10;99.30
20070;DHT22;10195;50.868;4.382;2023-06-10T09:47:27;31.60;98.70
20070;DHT22;10195;50.868;4.382;2023-06-10T09:49:52;31.50;99.80
20070;DHT22;10195;50.868;4.382;2023-06-10T09:52:27;32.20;98.70
20070;DHT22;10195;50.868;4.382;2023-06-10T09:54:55;32.50;98.80
20070;DHT22;10195;50.868;4.382;2023-06-10T09:57:23;32.10;98.50
20070;DHT22;10195;50.868;4.382;2023-06-10T09:59:53;31.20;98.80
20070;DHT22;10195;50.868;4.382;2023-06-10T10:02:19;31.30;99.50
20070;DHT22;10195;50.868;4.382;2023-06-10T10:04:45;31.90;98.60
20070;DHT22;10195;50.868;4.382;2023-06-10T10:07:11;32.30;98.30
20070;DHT22;10195;50.868;4.382;2023-06-10T10:09:41;32.40;97.80
20070;DHT22;10195;50.868;4.382;2023-06-10T10:12:11;32.50;97.90
20070;DHT22;10195;50.868;4.382;2023-06-10T10:14:38;32.30;97.70
20070;DHT22;10195;50.868;4.382;2023-06-10T10:17:07;31.80;96.40
20070;DHT22;10195;50.868;4.382;2023-06-10T10:19:40;31.40;96.70
20070;DHT22;10195;50.868;4.382;2023-06-10T10:22:11;31.10;98.10
20070;DHT22;10195;50.868;4.382;2023-06-10T10:24:49;31.20;97.60
20070;DHT22;10195;50.868;4.382;2023-06-10T10:27:33;31.00;97.10
20070;DHT22;10195;50.868;4.382;2023-06-10T10:30:01;31.00;98.40
20070;DHT22;10195;50.868;4.382;2023-06-10T10:32:35;31.10;97.60
20070;DHT22;10195;50.868;4.382;2023-06-10T10:35:07;31.50;98.10
20070;DHT22;10195;50.868;4.382;2023-06-10T10:37:33;31.10;97.10
20070;DHT22;10195;50.868;4.382;2023-06-10T10:40:01;30.80;95.90
20070;DHT22;10195;50.868;4.382;2023-06-10T10:42:27;30.60;96.80
20070;DHT22;10195;50.868;4.382;2023-06-10T10:44:53;30.90;96.50
20070;DHT22;10195;50.868;4.382;2023-06-10T10:47:21;31.00;95.10
20070;DHT22;10195;50.868;4.382;2023-06-10T10:49:51;31.00;93.90
20070;DHT22;10195;50.868;4.382;2023-06-10T10:52:18;31.10;94.20
20070;DHT22;10195;50.868;4.382;2023-06-10T10:54:45;31.00;95.20
20070;DHT22;10195;50.868;4.382;2023-06-10T10:57:16;31.00;93.80
20070;DHT22;10195;50.868;4.382;2023-06-10T11:00:00;30.80;93.60
20070;DHT22;10195;50.868;4.382;2023-06-10T11:02:42;30.60;93.30
20070;DHT22;10195;50.868;4.382;2023-06-10T11:05:15;30.70;94.50
20070;DHT22;10195;50.868;4.382;2023-06-10T11:07:52;30.90;93.00
20070;DHT22;10195;50.868;4.382;2023-06-10T11:10:29;30.80;92.80
20070;DHT22;10195;50.868;4.382;2023-06-10T11:12:57;30.60;92.60
20070;DHT22;10195;50.868;4.382;2023-06-10T11:15:28;30.70;93.10
20070;DHT22;10195;50.868;4.382;2023-06-10T11:31:25;31.00;90.40
20070;DHT22;10195;50.868;4.382;2023-06-10T11:34:01;31.10;92.00
20070;DHT22;10195;50.868;4.382;2023-06-10T11:36:29;30.90;91.60
20070;DHT22;10195;50.868;4.382;2023-06-10T11:39:03;30.90;92.50
20070;DHT22;10195;50.868;4.382;2023-06-10T11:41:30;31.00;92.10
20070;DHT22;10195;50.868;4.382;2023-06-10T11:44:00;30.80;92.20
20070;DHT22;10195;50.868;4.382;2023-06-10T11:46:26;31.20;92.50
20070;DHT22;10195;50.868;4.382;2023-06-10T11:48:54;31.20;90.70
20070;DHT22;10195;50.868;4.382;2023-06-10T11:51:20;31.40;92.60
20070;DHT22;10195;50.868;4.382;2023-06-10T11:53:48;31.20;89.00
20070;DHT22;10195;50.868;4.382;2023-06-10T11:56:19;30.90;90.50
20070;DHT22;10195;50.868;4.382;2023-06-10T11:58:45;31.10;91.40
20070;DHT22;10195;50.868;4.382;2023-06-10T12:01:10;31.30;91.00
20070;DHT22;10195;50.868;4.382;2023-06-10T12:03:37;31.20;90.00
20070;DHT22;10195;50.868;4.382;2023-06-10T12:06:05;31.20;91.40
20070;DHT22;10195;50.868;4.382;2023-06-10T12:08:32;31.40;89.80
20070;DHT22;10195;50.868;4.382;2023-06-10T12:10:58;31.50;90.90
20070;DHT22;10195;50.868;4.382;2023-06-10T12:13:26;31.20;91.00
20070;DHT22;10195;50.868;4.382;2023-06-10T12:15:52;31.10;91.40
20070;DHT22;10195;50.868;4.382;2023-06-10T12:18:20;31.00;91.40
20070;DHT22;10195;50.868;4.382;2023-06-10T12:20:46;31.00;92.20
20070;DHT22;10195;50.868;4.382;2023-06-10T12:23:12;31.30;90.90
20070;DHT22;10195;50.868;4.382;2023-06-10T12:25:39;31.40;90.80
20070;DHT22;10195;50.868;4.382;2023-06-10T12:28:05;31.50;90.50
20070;DHT22;10195;50.868;4.382;2023-06-10T12:30:32;31.30;90.80
20070;DHT22;10195;50.868;4.382;2023-06-10T12:32:58;31.30;90.80
20070;DHT22;10195;50.868;4.382;2023-06-10T12:35:26;31.40;91.10
20070;DHT22;10195;50.868;4.382;2023-06-10T12:38:03;31.30;89.50
20070;DHT22;10195;50.868;4.382;2023-06-10T12:40:41;31.20;90.30
20070;DHT22;10195;50.868;4.382;2023-06-10T12:43:07;31.20;90.30
20070;DHT22;10195;50.868;4.382;2023-06-10T12:45:34;31.10;90.20
20070;DHT22;10195;50.868;4.382;2023-06-10T12:48:23;31.10;90.20
20070;DHT22;10195;50.868;4.382;2023-06-10T12:50:52;31.20;90.00
20070;DHT22;10195;50.868;4.382;2023-06-10T12:53:19;31.50;90.80
20070;DHT22;10195;50.868;4.382;2023-06-10T12:55:45;31.60;90.30
20070;DHT22;10195;50.868;4.382;2023-06-10T12:58:11;31.20;89.00
20070;DHT22;10195;50.868;4.382;2023-06-10T13:00:37;30.80;90.10
20070;DHT22;10195;50.868;4.382;2023-06-10T13:03:03;30.90;90.70
20070;DHT22;10195;50.868;4.382;2023-06-10T13:05:31;31.20;89.90
20070;DHT22;10195;50.868;4.382;2023-06-10T13:07:58;31.50;90.30
20070;DHT22;10195;50.868;4.382;2023-06-10T13:10:24;31.20;90.30
20070;DHT22;10195;50.868;4.382;2023-06-10T13:12:50;31.40;90.10
20070;DHT22;10195;50.868;4.382;2023-06-10T13:15:16;31.70;90.00
20070;DHT22;10195;50.868;4.382;2023-06-10T13:17:46;31.40;88.30
20070;DHT22;10195;50.868;4.382;2023-06-10T13:20:16;31.00;89.30
20070;DHT22;10195;50.868;4.382;2023-06-10T13:22:42;30.80;90.60
20070;DHT22;10195;50.868;4.382;2023-06-10T13:25:09;31.10;89.60
20070;DHT22;10195;50.868;4.382;2023-06-10T13:27:35;31.40;89.60
20070;DHT22;10195;50.868;4.382;2023-06-10T13:30:04;31.40;90.00
20070;DHT22;10195;50.868;4.382;2023-06-10T13:32:30;31.50;91.00
20070;DHT22;10195;50.868;4.382;2023-06-10T13:34:55;31.70;88.70
20070;DHT22;10195;50.868;4.382;2023-06-10T13:37:22;31.80;89.50
20070;DHT22;10195;50.868;4.382;2023-06-10T13:39:48;31.90;86.50
20070;DHT22;10195;50.868;4.382;2023-06-10T13:42:16;31.80;88.00
20070;DHT22;10195;50.868;4.382;2023-06-10T13:44:42;31.70;87.60
20070;DHT22;10195;50.868;4.382;2023-06-10T13:47:08;31.40;88.10
20070;DHT22;10195;50.868;4.382;2023-06-10T13:49:33;31.00;88.00
20070;DHT22;10195;50.868;4.382;2023-06-10T13:51:59;31.00;87.50
20070;DHT22;10195;50.868;4.382;2023-06-10T13:54:24;31.10;86.70
20070;DHT22;10195;50.868;4.382;2023-06-10T13:56:50;31.10;87.30
20070;DHT22;10195;50.868;4.382;2023-06-10T13:59:16;31.20;87.40
20070;DHT22;10195;50.868;4.382;2023-06-10T14:01:41;31.20;87.20
20070;DHT22;10195;50.868;4.382;2023-06-10T14:04:07;31.30;86.30
20070;DHT22;10195;50.868;4.382;2023-06-10T14:06:33;31.40;87.70
20070;DHT22;10195;50.868;4.382;2023-06-10T14:09:00;31.50;87.80
20070;DHT22;10195;50.868;4.382;2023-06-10T14:11:25;31.00;86.80
20070;DHT22;10195;50.868;4.382;2023-06-10T14:13:51;31.10;88.20
20070;DHT22;10195;50.868;4.382;2023-06-10T14:16:17;31.00;86.70
20070;DHT22;10195;50.868;4.382;2023-06-10T14:18:43;31.00;88.00
20070;DHT22;10195;50.868;4.382;2023-06-10T14:21:09;31.00;87.50
20070;DHT22;10195;50.868;4.382;2023-06-10T14:23:34;31.20;87.30
20070;DHT22;10195;50.868;4.382;2023-06-10T14:26:00;31.40;87.30
20070;DHT22;10195;50.868;4.382;2023-06-10T14:28:27;31.40;86.10
20070;DHT22;10195;50.868;4.382;2023-06-10T14:30:54;31.10;86.90
20070;DHT22;10195;50.868;4.382;2023-06-10T14:33:20;31.10;87.30
20070;DHT22;10195;50.868;4.382;2023-06-10T14:35:45;31.10;87.50
20070;DHT22;10195;50.868;4.382;2023-06-10T14:38:11;31.00;86.10
20070;DHT22;10195;50.868;4.382;2023-06-10T14:40:37;31.00;86.20
20070;DHT22;10195;50.868;4.382;2023-06-10T14:43:02;31.10;86.10
20070;DHT22;10195;50.868;4.382;2023-06-10T14:45:38;31.20;85.90
20070;DHT22;10195;50.868;4.382;2023-06-10T14:48:04;31.00;86.50
20070;DHT22;10195;50.868;4.382;2023-06-10T14:50:30;31.00;85.30
20070;DHT22;10195;50.868;4.382;2023-06-10T14:52:56;31.00;86.40
20070;DHT22;10195;50.868;4.382;2023-06-10T14:55:21;31.20;87.00
20070;DHT22;10195;50.868;4.382;2023-06-10T14:57:48;31.40;85.90
20070;DHT22;10195;50.868;4.382;2023-06-10T15:00:14;31.40;84.40
20070;DHT22;10195;50.868;4.382;2023-06-10T15:02:42;31.40;84.30
20070;DHT22;10195;50.868;4.382;2023-06-10T15:05:08;31.40;84.60
20070;DHT22;10195;50.868;4.382;2023-06-10T15:07:34;31.30;85.00
20070;DHT22;10195;50.868;4.382;2023-06-10T15:09:59;31.00;84.90
20070;DHT22;10195;50.868;4.382;2023-06-10T15:12:25;30.90;85.30
20070;DHT22;10195;50.868;4.382;2023-06-10T15:14:51;31.20;86.30
20070;DHT22;10195;50.868;4.382;2023-06-10T15:17:16;31.10;85.30
20070;DHT22;10195;50.868;4.382;2023-06-10T15:19:42;31.20;85.30
20070;DHT22;10195;50.868;4.382;2023-06-10T15:22:08;31.40;85.30
20070;DHT22;10195;50.868;4.382;2023-06-10T15:24:33;31.60;85.70
20070;DHT22;10195;50.868;4.382;2023-06-10T15:26:59;31.60;85.90
20070;DHT22;10195;50.868;4.382;2023-06-10T15:29:25;31.60;84.60
20070;DHT22;10195;50.868;4.382;2023-06-10T15:31:51;31.70;85.10
20070;DHT22;10195;50.868;4.382;2023-06-10T15:34:16;31.50;85.20
20070;DHT22;10195;50.868;4.382;2023-06-10T15:36:42;31.30;84.30
20070;DHT22;10195;50.868;4.382;2023-06-10T15:39:08;31.10;84.60
20070;DHT22;10195;50.868;4.382;2023-06-10T15:41:34;31.00;84.80
20070;DHT22;10195;50.868;4.382;2023-06-10T15:44:00;31.10;82.30
20070;DHT22;10195;50.868;4.382;2023-06-10T15:46:28;31.10;82.50
20070;DHT22;10195;50.868;4.382;2023-06-10T15:48:53;31.20;83.00